Terminal Aerodrome Forecast
Issued by NWS

Home | Current Version | Previous Version | Text Only | Print | Product List | Glossary On
Versions: 1 2 3 4 5 6 7 8 9 10 11 12
000
FTUS44 KOUN 161139
TAFHBR
TAF
KHBR 161139Z 1612/1712 21015KT P6SM SCT250
     FM161600 20021G31KT P6SM SCT250
     FM162300 18017KT P6SM SCT050 BKN100
     FM170500 16014KT P6SM BKN025=

USA.gov is the U.S. government's official web portal to all federal, state and local government web resources and services.